sensor_id;sensor_type;location;lat;lon;timestamp;P1;durP1;ratioP1;P2;durP2;ratioP2
72939;SDS011;61094;51.154;13.570;2022-08-25T00:01:43;15.30;;;7.65;;
72939;SDS011;61094;51.154;13.570;2022-08-25T00:04:14;15.07;;;8.20;;
72939;SDS011;61094;51.154;13.570;2022-08-25T00:06:41;15.30;;;7.65;;
72939;SDS011;61094;51.154;13.570;2022-08-25T00:09:11;15.40;;;7.95;;
72939;SDS011;61094;51.154;13.570;2022-08-25T00:11:40;16.23;;;8.60;;
72939;SDS011;61094;51.154;13.570;2022-08-25T00:14:08;17.27;;;8.02;;
72939;SDS011;61094;51.154;13.570;2022-08-25T00:16:37;19.48;;;8.82;;
72939;SDS011;61094;51.154;13.570;2022-08-25T00:19:05;18.63;;;9.43;;
72939;SDS011;61094;51.154;13.570;2022-08-25T00:21:34;16.83;;;8.57;;
72939;SDS011;61094;51.154;13.570;2022-08-25T00:24:01;16.42;;;8.38;;
72939;SDS011;61094;51.154;13.570;2022-08-25T00:26:29;18.15;;;8.82;;
72939;SDS011;61094;51.154;13.570;2022-08-25T00:28:56;19.85;;;8.55;;
72939;SDS011;61094;51.154;13.570;2022-08-25T00:31:23;13.43;;;7.85;;
72939;SDS011;61094;51.154;13.570;2022-08-25T00:33:50;24.17;;;9.43;;
72939;SDS011;61094;51.154;13.570;2022-08-25T00:38:46;23.98;;;7.63;;
72939;SDS011;61094;51.154;13.570;2022-08-25T00:41:15;19.27;;;8.65;;
72939;SDS011;61094;51.154;13.570;2022-08-25T00:43:48;16.33;;;7.50;;
72939;SDS011;61094;51.154;13.570;2022-08-25T00:46:17;16.67;;;7.72;;
72939;SDS011;61094;51.154;13.570;2022-08-25T00:48:47;17.25;;;8.45;;
72939;SDS011;61094;51.154;13.570;2022-08-25T00:51:17;16.33;;;8.35;;
72939;SDS011;61094;51.154;13.570;2022-08-25T00:53:49;15.48;;;8.63;;
72939;SDS011;61094;51.154;13.570;2022-08-25T00:56:16;16.13;;;8.50;;
72939;SDS011;61094;51.154;13.570;2022-08-25T00:58:43;17.10;;;7.97;;
72939;SDS011;61094;51.154;13.570;2022-08-25T01:01:11;15.63;;;7.88;;
72939;SDS011;61094;51.154;13.570;2022-08-25T01:03:38;15.85;;;8.02;;
72939;SDS011;61094;51.154;13.570;2022-08-25T01:06:05;15.95;;;7.93;;
72939;SDS011;61094;51.154;13.570;2022-08-25T01:08:34;15.20;;;7.35;;
72939;SDS011;61094;51.154;13.570;2022-08-25T01:11:01;17.45;;;7.63;;
72939;SDS011;61094;51.154;13.570;2022-08-25T01:15:58;16.00;;;7.65;;
72939;SDS011;61094;51.154;13.570;2022-08-25T01:18:27;16.70;;;7.97;;
72939;SDS011;61094;51.154;13.570;2022-08-25T01:20:56;15.20;;;8.02;;
72939;SDS011;61094;51.154;13.570;2022-08-25T01:23:24;13.57;;;7.80;;
72939;SDS011;61094;51.154;13.570;2022-08-25T01:25:52;14.50;;;7.55;;
72939;SDS011;61094;51.154;13.570;2022-08-25T01:28:25;17.35;;;7.82;;
72939;SDS011;61094;51.154;13.570;2022-08-25T01:30:51;20.48;;;8.25;;
72939;SDS011;61094;51.154;13.570;2022-08-25T01:33:18;16.88;;;7.65;;
72939;SDS011;61094;51.154;13.570;2022-08-25T01:35:45;14.70;;;7.40;;
72939;SDS011;61094;51.154;13.570;2022-08-25T01:38:14;16.40;;;7.53;;
72939;SDS011;61094;51.154;13.570;2022-08-25T01:40:41;18.48;;;8.07;;
72939;SDS011;61094;51.154;13.570;2022-08-25T01:43:10;19.13;;;7.82;;
72939;SDS011;61094;51.154;13.570;2022-08-25T01:45:50;13.75;;;7.25;;
72939;SDS011;61094;51.154;13.570;2022-08-25T01:48:17;16.60;;;7.63;;
72939;SDS011;61094;51.154;13.570;2022-08-25T01:50:44;17.35;;;8.00;;
72939;SDS011;61094;51.154;13.570;2022-08-25T01:53:12;15.13;;;6.82;;
72939;SDS011;61094;51.154;13.570;2022-08-25T01:55:43;17.50;;;7.55;;
72939;SDS011;61094;51.154;13.570;2022-08-25T01:58:27;14.35;;;7.32;;
72939;SDS011;61094;51.154;13.570;2022-08-25T02:00:56;15.23;;;7.32;;
72939;SDS011;61094;51.154;13.570;2022-08-25T02:03:26;15.25;;;7.60;;
72939;SDS011;61094;51.154;13.570;2022-08-25T02:05:54;16.73;;;7.95;;
72939;SDS011;61094;51.154;13.570;2022-08-25T02:08:23;15.13;;;8.20;;
72939;SDS011;61094;51.154;13.570;2022-08-25T02:10:51;15.88;;;8.18;;
72939;SDS011;61094;51.154;13.570;2022-08-25T02:16:43;15.90;;;7.15;;
72939;SDS011;61094;51.154;13.570;2022-08-25T02:19:12;14.43;;;7.70;;
72939;SDS011;61094;51.154;13.570;2022-08-25T02:21:40;15.07;;;7.10;;
72939;SDS011;61094;51.154;13.570;2022-08-25T02:24:09;14.98;;;7.97;;
72939;SDS011;61094;51.154;13.570;2022-08-25T02:29:04;16.35;;;7.43;;
72939;SDS011;61094;51.154;13.570;2022-08-25T02:31:32;14.90;;;7.35;;
72939;SDS011;61094;51.154;13.570;2022-08-25T02:33:59;15.88;;;7.68;;
72939;SDS011;61094;51.154;13.570;2022-08-25T02:36:26;16.52;;;8.10;;
72939;SDS011;61094;51.154;13.570;2022-08-25T02:38:53;14.07;;;7.93;;
72939;SDS011;61094;51.154;13.570;2022-08-25T02:41:22;19.40;;;7.93;;
72939;SDS011;61094;51.154;13.570;2022-08-25T02:43:51;18.15;;;8.18;;
72939;SDS011;61094;51.154;13.570;2022-08-25T02:46:20;16.05;;;7.80;;
72939;SDS011;61094;51.154;13.570;2022-08-25T02:48:49;18.00;;;8.55;;
72939;SDS011;61094;51.154;13.570;2022-08-25T02:51:17;15.82;;;8.15;;
72939;SDS011;61094;51.154;13.570;2022-08-25T02:53:45;16.42;;;8.20;;
72939;SDS011;61094;51.154;13.570;2022-08-25T02:56:13;20.65;;;7.93;;
72939;SDS011;61094;51.154;13.570;2022-08-25T02:58:43;14.60;;;7.72;;
72939;SDS011;61094;51.154;13.570;2022-08-25T03:01:10;15.82;;;7.95;;
72939;SDS011;61094;51.154;13.570;2022-08-25T03:03:38;14.82;;;7.68;;
72939;SDS011;61094;51.154;13.570;2022-08-25T03:06:06;14.73;;;7.75;;
72939;SDS011;61094;51.154;13.570;2022-08-25T03:08:33;15.43;;;7.75;;
72939;SDS011;61094;51.154;13.570;2022-08-25T03:11:00;19.60;;;8.15;;
72939;SDS011;61094;51.154;13.570;2022-08-25T03:13:27;16.67;;;8.40;;
72939;SDS011;61094;51.154;13.570;2022-08-25T03:15:55;19.52;;;8.68;;
72939;SDS011;61094;51.154;13.570;2022-08-25T03:18:21;17.80;;;8.88;;
72939;SDS011;61094;51.154;13.570;2022-08-25T03:20:48;15.65;;;7.30;;
72939;SDS011;61094;51.154;13.570;2022-08-25T03:23:14;19.02;;;8.23;;
72939;SDS011;61094;51.154;13.570;2022-08-25T03:25:41;17.05;;;9.00;;
72939;SDS011;61094;51.154;13.570;2022-08-25T03:28:26;19.20;;;8.20;;
72939;SDS011;61094;51.154;13.570;2022-08-25T03:30:56;20.13;;;8.55;;
72939;SDS011;61094;51.154;13.570;2022-08-25T03:33:24;18.58;;;8.75;;
72939;SDS011;61094;51.154;13.570;2022-08-25T03:35:50;25.70;;;9.07;;
72939;SDS011;61094;51.154;13.570;2022-08-25T03:38:17;17.83;;;8.02;;
72939;SDS011;61094;51.154;13.570;2022-08-25T03:40:44;17.65;;;8.98;;
72939;SDS011;61094;51.154;13.570;2022-08-25T03:43:10;20.25;;;9.05;;
72939;SDS011;61094;51.154;13.570;2022-08-25T03:45:38;20.52;;;9.10;;
72939;SDS011;61094;51.154;13.570;2022-08-25T03:48:07;22.10;;;9.60;;
72939;SDS011;61094;51.154;13.570;2022-08-25T03:50:34;19.98;;;9.10;;
72939;SDS011;61094;51.154;13.570;2022-08-25T03:53:01;21.50;;;8.93;;
72939;SDS011;61094;51.154;13.570;2022-08-25T03:55:28;14.70;;;7.60;;
72939;SDS011;61094;51.154;13.570;2022-08-25T03:57:55;23.73;;;8.43;;
72939;SDS011;61094;51.154;13.570;2022-08-25T04:00:22;16.92;;;8.43;;
72939;SDS011;61094;51.154;13.570;2022-08-25T04:02:48;16.55;;;7.88;;
72939;SDS011;61094;51.154;13.570;2022-08-25T04:05:17;20.90;;;8.38;;
72939;SDS011;61094;51.154;13.570;2022-08-25T04:07:44;27.13;;;8.73;;
72939;SDS011;61094;51.154;13.570;2022-08-25T04:10:11;23.15;;;9.50;;
72939;SDS011;61094;51.154;13.570;2022-08-25T04:12:38;17.52;;;8.30;;
72939;SDS011;61094;51.154;13.570;2022-08-25T04:15:06;21.70;;;9.65;;
72939;SDS011;61094;51.154;13.570;2022-08-25T04:17:35;18.00;;;8.90;;
72939;SDS011;61094;51.154;13.570;2022-08-25T04:20:04;21.05;;;8.98;;
72939;SDS011;61094;51.154;13.570;2022-08-25T04:22:33;18.85;;;7.80;;
72939;SDS011;61094;51.154;13.570;2022-08-25T04:25:00;22.55;;;9.32;;
72939;SDS011;61094;51.154;13.570;2022-08-25T04:27:27;18.30;;;8.15;;
72939;SDS011;61094;51.154;13.570;2022-08-25T04:29:54;26.63;;;9.50;;
72939;SDS011;61094;51.154;13.570;2022-08-25T04:32:20;22.70;;;9.13;;
72939;SDS011;61094;51.154;13.570;2022-08-25T04:34:47;24.23;;;9.02;;
72939;SDS011;61094;51.154;13.570;2022-08-25T04:37:14;19.00;;;8.38;;
72939;SDS011;61094;51.154;13.570;2022-08-25T04:39:42;25.25;;;9.75;;
72939;SDS011;61094;51.154;13.570;2022-08-25T04:42:09;23.13;;;9.95;;
72939;SDS011;61094;51.154;13.570;2022-08-25T04:44:36;20.83;;;9.52;;
72939;SDS011;61094;51.154;13.570;2022-08-25T04:47:03;22.55;;;8.35;;
72939;SDS011;61094;51.154;13.570;2022-08-25T04:49:30;21.23;;;9.23;;
72939;SDS011;61094;51.154;13.570;2022-08-25T04:51:56;23.40;;;9.23;;
72939;SDS011;61094;51.154;13.570;2022-08-25T04:54:23;23.13;;;9.48;;
72939;SDS011;61094;51.154;13.570;2022-08-25T04:56:51;24.40;;;10.13;;
72939;SDS011;61094;51.154;13.570;2022-08-25T04:59:18;30.25;;;10.45;;
72939;SDS011;61094;51.154;13.570;2022-08-25T05:01:45;21.90;;;9.65;;
72939;SDS011;61094;51.154;13.570;2022-08-25T05:04:13;24.02;;;9.52;;
72939;SDS011;61094;51.154;13.570;2022-08-25T05:06:42;28.55;;;10.57;;
72939;SDS011;61094;51.154;13.570;2022-08-25T05:09:09;19.75;;;9.63;;
72939;SDS011;61094;51.154;13.570;2022-08-25T05:11:35;29.17;;;10.27;;
72939;SDS011;61094;51.154;13.570;2022-08-25T05:14:04;23.70;;;10.02;;
72939;SDS011;61094;51.154;13.570;2022-08-25T05:16:35;23.27;;;10.45;;
72939;SDS011;61094;51.154;13.570;2022-08-25T05:19:03;40.83;;;14.73;;
72939;SDS011;61094;51.154;13.570;2022-08-25T05:21:29;134.45;;;57.97;;
72939;SDS011;61094;51.154;13.570;2022-08-25T05:23:57;56.38;;;25.00;;
72939;SDS011;61094;51.154;13.570;2022-08-25T05:26:26;35.33;;;13.85;;
72939;SDS011;61094;51.154;13.570;2022-08-25T05:28:55;32.83;;;11.43;;
72939;SDS011;61094;51.154;13.570;2022-08-25T05:31:24;25.15;;;10.77;;
72939;SDS011;61094;51.154;13.570;2022-08-25T05:33:52;27.95;;;10.73;;
72939;SDS011;61094;51.154;13.570;2022-08-25T05:36:20;29.88;;;11.70;;
72939;SDS011;61094;51.154;13.570;2022-08-25T05:38:47;31.10;;;13.05;;
72939;SDS011;61094;51.154;13.570;2022-08-25T05:41:15;33.05;;;12.60;;
72939;SDS011;61094;51.154;13.570;2022-08-25T05:43:44;40.40;;;16.83;;
72939;SDS011;61094;51.154;13.570;2022-08-25T05:46:12;35.03;;;15.05;;
72939;SDS011;61094;51.154;13.570;2022-08-25T05:48:44;71.18;;;31.17;;
72939;SDS011;61094;51.154;13.570;2022-08-25T05:51:11;32.25;;;14.05;;
72939;SDS011;61094;51.154;13.570;2022-08-25T05:53:40;27.33;;;12.50;;
72939;SDS011;61094;51.154;13.570;2022-08-25T05:56:08;31.65;;;12.65;;
72939;SDS011;61094;51.154;13.570;2022-08-25T05:58:37;28.02;;;12.93;;
72939;SDS011;61094;51.154;13.570;2022-08-25T06:01:08;30.20;;;12.35;;
72939;SDS011;61094;51.154;13.570;2022-08-25T06:03:54;26.40;;;12.15;;
72939;SDS011;61094;51.154;13.570;2022-08-25T06:06:22;30.73;;;13.23;;
72939;SDS011;61094;51.154;13.570;2022-08-25T06:08:50;29.88;;;12.93;;
72939;SDS011;61094;51.154;13.570;2022-08-25T06:11:17;30.85;;;14.02;;
72939;SDS011;61094;51.154;13.570;2022-08-25T06:13:44;29.92;;;13.48;;
72939;SDS011;61094;51.154;13.570;2022-08-25T06:16:10;27.92;;;12.75;;
72939;SDS011;61094;51.154;13.570;2022-08-25T06:18:37;25.13;;;11.80;;
72939;SDS011;61094;51.154;13.570;2022-08-25T06:21:10;27.42;;;12.07;;
72939;SDS011;61094;51.154;13.570;2022-08-25T06:23:38;28.48;;;12.95;;
72939;SDS011;61094;51.154;13.570;2022-08-25T06:26:11;23.48;;;12.10;;
72939;SDS011;61094;51.154;13.570;2022-08-25T06:28:38;28.75;;;11.93;;
72939;SDS011;61094;51.154;13.570;2022-08-25T06:31:06;27.08;;;12.43;;
72939;SDS011;61094;51.154;13.570;2022-08-25T06:33:33;31.58;;;14.20;;
72939;SDS011;61094;51.154;13.570;2022-08-25T06:36:00;32.63;;;16.27;;
72939;SDS011;61094;51.154;13.570;2022-08-25T06:38:28;28.90;;;14.68;;
72939;SDS011;61094;51.154;13.570;2022-08-25T06:40:55;32.78;;;14.35;;
72939;SDS011;61094;51.154;13.570;2022-08-25T06:43:22;34.15;;;15.10;;
72939;SDS011;61094;51.154;13.570;2022-08-25T06:45:49;30.85;;;15.52;;
72939;SDS011;61094;51.154;13.570;2022-08-25T06:48:16;34.05;;;13.88;;
72939;SDS011;61094;51.154;13.570;2022-08-25T06:50:43;32.67;;;14.50;;
72939;SDS011;61094;51.154;13.570;2022-08-25T06:53:09;31.25;;;15.15;;
72939;SDS011;61094;51.154;13.570;2022-08-25T06:55:38;27.75;;;15.00;;
72939;SDS011;61094;51.154;13.570;2022-08-25T06:58:05;27.75;;;12.70;;
72939;SDS011;61094;51.154;13.570;2022-08-25T07:00:34;23.90;;;13.40;;
72939;SDS011;61094;51.154;13.570;2022-08-25T07:03:00;28.98;;;14.77;;
72939;SDS011;61094;51.154;13.570;2022-08-25T07:05:29;32.97;;;14.18;;
72939;SDS011;61094;51.154;13.570;2022-08-25T07:07:56;27.15;;;14.05;;
72939;SDS011;61094;51.154;13.570;2022-08-25T07:10:23;27.40;;;12.88;;
72939;SDS011;61094;51.154;13.570;2022-08-25T07:12:51;27.95;;;13.65;;
72939;SDS011;61094;51.154;13.570;2022-08-25T07:15:18;29.25;;;13.60;;
72939;SDS011;61094;51.154;13.570;2022-08-25T07:17:44;28.38;;;14.38;;
72939;SDS011;61094;51.154;13.570;2022-08-25T07:20:11;28.77;;;13.75;;
72939;SDS011;61094;51.154;13.570;2022-08-25T07:22:38;30.23;;;14.68;;
72939;SDS011;61094;51.154;13.570;2022-08-25T07:25:05;31.13;;;15.38;;
72939;SDS011;61094;51.154;13.570;2022-08-25T07:27:32;30.30;;;14.32;;
72939;SDS011;61094;51.154;13.570;2022-08-25T07:30:00;32.53;;;14.60;;
72939;SDS011;61094;51.154;13.570;2022-08-25T07:32:27;27.15;;;13.05;;
72939;SDS011;61094;51.154;13.570;2022-08-25T07:34:54;25.17;;;12.82;;
72939;SDS011;61094;51.154;13.570;2022-08-25T07:37:38;28.80;;;13.30;;
72939;SDS011;61094;51.154;13.570;2022-08-25T07:40:07;23.88;;;13.15;;
72939;SDS011;61094;51.154;13.570;2022-08-25T07:42:35;28.10;;;13.90;;
72939;SDS011;61094;51.154;13.570;2022-08-25T07:45:03;25.95;;;12.85;;
72939;SDS011;61094;51.154;13.570;2022-08-25T07:47:31;24.23;;;12.40;;
72939;SDS011;61094;51.154;13.570;2022-08-25T07:49:58;25.92;;;12.82;;
72939;SDS011;61094;51.154;13.570;2022-08-25T07:52:25;23.58;;;12.48;;
72939;SDS011;61094;51.154;13.570;2022-08-25T07:54:52;24.83;;;13.18;;
72939;SDS011;61094;51.154;13.570;2022-08-25T07:57:19;20.23;;;11.68;;
72939;SDS011;61094;51.154;13.570;2022-08-25T07:59:48;20.80;;;11.63;;
72939;SDS011;61094;51.154;13.570;2022-08-25T08:02:16;22.13;;;11.45;;
72939;SDS011;61094;51.154;13.570;2022-08-25T08:07:22;19.40;;;12.27;;
72939;SDS011;61094;51.154;13.570;2022-08-25T08:09:51;22.10;;;13.25;;
72939;SDS011;61094;51.154;13.570;2022-08-25T08:12:18;24.00;;;12.75;;
72939;SDS011;61094;51.154;13.570;2022-08-25T08:14:45;20.70;;;11.77;;
72939;SDS011;61094;51.154;13.570;2022-08-25T08:17:12;19.95;;;11.75;;
72939;SDS011;61094;51.154;13.570;2022-08-25T08:19:39;20.20;;;11.10;;
72939;SDS011;61094;51.154;13.570;2022-08-25T08:22:06;19.38;;;12.05;;
72939;SDS011;61094;51.154;13.570;2022-08-25T08:24:36;19.13;;;11.02;;
72939;SDS011;61094;51.154;13.570;2022-08-25T08:27:03;19.33;;;10.02;;
72939;SDS011;61094;51.154;13.570;2022-08-25T08:29:31;19.63;;;11.10;;
72939;SDS011;61094;51.154;13.570;2022-08-25T08:31:58;22.55;;;10.77;;
72939;SDS011;61094;51.154;13.570;2022-08-25T08:34:24;21.98;;;11.73;;
72939;SDS011;61094;51.154;13.570;2022-08-25T08:36:51;19.55;;;11.60;;
72939;SDS011;61094;51.154;13.570;2022-08-25T08:39:18;21.65;;;12.15;;
72939;SDS011;61094;51.154;13.570;2022-08-25T08:41:49;22.27;;;11.60;;
72939;SDS011;61094;51.154;13.570;2022-08-25T08:44:41;21.17;;;10.80;;
72939;SDS011;61094;51.154;13.570;2022-08-25T08:47:22;23.92;;;12.35;;
72939;SDS011;61094;51.154;13.570;2022-08-25T08:49:59;18.48;;;9.93;;
72939;SDS011;61094;51.154;13.570;2022-08-25T08:52:32;19.58;;;9.68;;
72939;SDS011;61094;51.154;13.570;2022-08-25T08:55:07;15.45;;;8.07;;
72939;SDS011;61094;51.154;13.570;2022-08-25T08:57:42;20.73;;;10.32;;
72939;SDS011;61094;51.154;13.570;2022-08-25T09:00:12;20.75;;;11.35;;
72939;SDS011;61094;51.154;13.570;2022-08-25T09:02:41;17.20;;;9.30;;
72939;SDS011;61094;51.154;13.570;2022-08-25T09:05:13;21.02;;;11.52;;
72939;SDS011;61094;51.154;13.570;2022-08-25T09:07:44;20.75;;;9.15;;
72939;SDS011;61094;51.154;13.570;2022-08-25T09:10:14;17.70;;;8.95;;
72939;SDS011;61094;51.154;13.570;2022-08-25T09:12:43;15.27;;;8.48;;
72939;SDS011;61094;51.154;13.570;2022-08-25T09:15:17;13.02;;;8.32;;
72939;SDS011;61094;51.154;13.570;2022-08-25T09:18:14;17.92;;;8.02;;
72939;SDS011;61094;51.154;13.570;2022-08-25T09:20:51;13.38;;;8.27;;
72939;SDS011;61094;51.154;13.570;2022-08-25T09:23:30;21.55;;;9.63;;
72939;SDS011;61094;51.154;13.570;2022-08-25T09:26:02;19.40;;;7.40;;
72939;SDS011;61094;51.154;13.570;2022-08-25T09:28:46;14.95;;;7.88;;
72939;SDS011;61094;51.154;13.570;2022-08-25T09:31:16;19.48;;;9.27;;
72939;SDS011;61094;51.154;13.570;2022-08-25T09:33:46;15.85;;;7.65;;
72939;SDS011;61094;51.154;13.570;2022-08-25T09:36:13;19.02;;;7.80;;
72939;SDS011;61094;51.154;13.570;2022-08-25T09:38:41;16.05;;;7.10;;
72939;SDS011;61094;51.154;13.570;2022-08-25T09:41:08;23.67;;;7.72;;
72939;SDS011;61094;51.154;13.570;2022-08-25T09:43:36;14.60;;;7.07;;
72939;SDS011;61094;51.154;13.570;2022-08-25T09:46:10;19.08;;;7.68;;
72939;SDS011;61094;51.154;13.570;2022-08-25T09:48:42;15.57;;;7.15;;
72939;SDS011;61094;51.154;13.570;2022-08-25T09:51:15;17.45;;;6.78;;
72939;SDS011;61094;51.154;13.570;2022-08-25T09:53:45;18.48;;;7.15;;
72939;SDS011;61094;51.154;13.570;2022-08-25T09:56:18;13.52;;;6.45;;
72939;SDS011;61094;51.154;13.570;2022-08-25T09:58:46;13.75;;;6.15;;
72939;SDS011;61094;51.154;13.570;2022-08-25T10:01:16;17.13;;;6.97;;
72939;SDS011;61094;51.154;13.570;2022-08-25T10:03:53;15.80;;;6.18;;
72939;SDS011;61094;51.154;13.570;2022-08-25T10:06:22;16.85;;;5.80;;
72939;SDS011;61094;51.154;13.570;2022-08-25T10:08:52;13.48;;;5.38;;
72939;SDS011;61094;51.154;13.570;2022-08-25T10:11:29;14.50;;;5.45;;
72939;SDS011;61094;51.154;13.570;2022-08-25T10:17:05;18.48;;;5.30;;
72939;SDS011;61094;51.154;13.570;2022-08-25T10:19:38;19.80;;;6.40;;
72939;SDS011;61094;51.154;13.570;2022-08-25T10:22:06;17.83;;;5.75;;
72939;SDS011;61094;51.154;13.570;2022-08-25T10:24:35;15.82;;;6.00;;
72939;SDS011;61094;51.154;13.570;2022-08-25T10:27:04;13.30;;;5.03;;
72939;SDS011;61094;51.154;13.570;2022-08-25T10:29:47;17.52;;;4.97;;
72939;SDS011;61094;51.154;13.570;2022-08-25T10:32:37;16.67;;;5.25;;
72939;SDS011;61094;51.154;13.570;2022-08-25T10:35:34;16.90;;;5.72;;
72939;SDS011;61094;51.154;13.570;2022-08-25T10:38:11;15.60;;;5.85;;
72939;SDS011;61094;51.154;13.570;2022-08-25T10:40:50;18.40;;;5.40;;
72939;SDS011;61094;51.154;13.570;2022-08-25T10:43:23;16.17;;;5.40;;
72939;SDS011;61094;51.154;13.570;2022-08-25T10:46:00;15.68;;;5.25;;
72939;SDS011;61094;51.154;13.570;2022-08-25T10:48:52;17.17;;;4.93;;
72939;SDS011;61094;51.154;13.570;2022-08-25T10:51:37;18.83;;;5.35;;
72939;SDS011;61094;51.154;13.570;2022-08-25T10:54:15;18.88;;;5.90;;
72939;SDS011;61094;51.154;13.570;2022-08-25T10:56:49;19.35;;;6.00;;
72939;SDS011;61094;51.154;13.570;2022-08-25T10:59:26;17.13;;;5.03;;
72939;SDS011;61094;51.154;13.570;2022-08-25T11:02:27;21.45;;;5.68;;
72939;SDS011;61094;51.154;13.570;2022-08-25T11:05:27;14.00;;;5.32;;
72939;SDS011;61094;51.154;13.570;2022-08-25T11:07:59;23.67;;;6.35;;
72939;SDS011;61094;51.154;13.570;2022-08-25T11:10:33;16.13;;;5.70;;
72939;SDS011;61094;51.154;13.570;2022-08-25T11:13:07;13.98;;;4.68;;
72939;SDS011;61094;51.154;13.570;2022-08-25T11:15:42;17.90;;;6.78;;
72939;SDS011;61094;51.154;13.570;2022-08-25T11:18:15;19.95;;;5.95;;
72939;SDS011;61094;51.154;13.570;2022-08-25T11:20:44;18.75;;;5.10;;
72939;SDS011;61094;51.154;13.570;2022-08-25T11:23:16;19.27;;;5.53;;
72939;SDS011;61094;51.154;13.570;2022-08-25T11:25:48;17.30;;;5.63;;
72939;SDS011;61094;51.154;13.570;2022-08-25T11:28:19;21.40;;;6.22;;
72939;SDS011;61094;51.154;13.570;2022-08-25T11:30:51;18.80;;;6.05;;
72939;SDS011;61094;51.154;13.570;2022-08-25T11:33:21;14.02;;;5.65;;
72939;SDS011;61094;51.154;13.570;2022-08-25T11:35:51;20.35;;;6.10;;
72939;SDS011;61094;51.154;13.570;2022-08-25T11:38:24;21.20;;;5.82;;
72939;SDS011;61094;51.154;13.570;2022-08-25T11:41:04;24.40;;;7.22;;
72939;SDS011;61094;51.154;13.570;2022-08-25T11:43:47;18.17;;;7.50;;
72939;SDS011;61094;51.154;13.570;2022-08-25T11:49:02;18.85;;;5.95;;
72939;SDS011;61094;51.154;13.570;2022-08-25T11:51:47;17.38;;;5.53;;
72939;SDS011;61094;51.154;13.570;2022-08-25T11:54:17;15.52;;;5.18;;
72939;SDS011;61094;51.154;13.570;2022-08-25T11:56:52;19.92;;;6.88;;
72939;SDS011;61094;51.154;13.570;2022-08-25T12:04:59;18.33;;;5.88;;
72939;SDS011;61094;51.154;13.570;2022-08-25T12:10:55;22.60;;;6.28;;
72939;SDS011;61094;51.154;13.570;2022-08-25T12:13:26;18.20;;;6.90;;
72939;SDS011;61094;51.154;13.570;2022-08-25T12:16:30;23.35;;;7.15;;
72939;SDS011;61094;51.154;13.570;2022-08-25T12:21:52;29.38;;;6.40;;
72939;SDS011;61094;51.154;13.570;2022-08-25T12:24:22;16.73;;;6.57;;
72939;SDS011;61094;51.154;13.570;2022-08-25T12:27:11;22.58;;;7.45;;
72939;SDS011;61094;51.154;13.570;2022-08-25T12:29:49;20.13;;;8.10;;
72939;SDS011;61094;51.154;13.570;2022-08-25T12:32:32;23.25;;;7.80;;
72939;SDS011;61094;51.154;13.570;2022-08-25T12:35:14;18.98;;;6.00;;
72939;SDS011;61094;51.154;13.570;2022-08-25T12:37:55;21.23;;;7.22;;
72939;SDS011;61094;51.154;13.570;2022-08-25T12:40:31;26.63;;;6.45;;
72939;SDS011;61094;51.154;13.570;2022-08-25T12:43:08;18.67;;;6.45;;
72939;SDS011;61094;51.154;13.570;2022-08-25T12:45:40;21.08;;;5.72;;
72939;SDS011;61094;51.154;13.570;2022-08-25T12:51:06;31.88;;;19.92;;
72939;SDS011;61094;51.154;13.570;2022-08-25T12:53:37;16.25;;;5.78;;
72939;SDS011;61094;51.154;13.570;2022-08-25T12:56:08;19.65;;;5.38;;
72939;SDS011;61094;51.154;13.570;2022-08-25T12:58:46;20.75;;;4.90;;
72939;SDS011;61094;51.154;13.570;2022-08-25T13:01:17;17.40;;;4.78;;
72939;SDS011;61094;51.154;13.570;2022-08-25T13:07:10;13.13;;;5.40;;
72939;SDS011;61094;51.154;13.570;2022-08-25T13:10:02;18.90;;;5.75;;
72939;SDS011;61094;51.154;13.570;2022-08-25T13:12:40;18.35;;;5.38;;
72939;SDS011;61094;51.154;13.570;2022-08-25T13:15:13;13.68;;;6.00;;
72939;SDS011;61094;51.154;13.570;2022-08-25T13:17:49;18.80;;;6.18;;
72939;SDS011;61094;51.154;13.570;2022-08-25T13:20:17;16.95;;;5.93;;
72939;SDS011;61094;51.154;13.570;2022-08-25T13:22:48;18.85;;;5.85;;
72939;SDS011;61094;51.154;13.570;2022-08-25T13:25:16;17.95;;;6.78;;
72939;SDS011;61094;51.154;13.570;2022-08-25T13:27:48;18.08;;;5.47;;
72939;SDS011;61094;51.154;13.570;2022-08-25T13:30:23;23.73;;;5.90;;
72939;SDS011;61094;51.154;13.570;2022-08-25T13:32:52;16.83;;;5.88;;
72939;SDS011;61094;51.154;13.570;2022-08-25T13:35:20;14.82;;;5.00;;
72939;SDS011;61094;51.154;13.570;2022-08-25T13:37:49;16.10;;;5.28;;
72939;SDS011;61094;51.154;13.570;2022-08-25T13:40:15;14.20;;;4.82;;
72939;SDS011;61094;51.154;13.570;2022-08-25T13:42:49;19.95;;;5.82;;
72939;SDS011;61094;51.154;13.570;2022-08-25T13:45:18;16.00;;;5.00;;
72939;SDS011;61094;51.154;13.570;2022-08-25T13:47:46;18.75;;;4.85;;
72939;SDS011;61094;51.154;13.570;2022-08-25T13:50:16;14.32;;;4.97;;
72939;SDS011;61094;51.154;13.570;2022-08-25T13:52:54;15.88;;;5.32;;
72939;SDS011;61094;51.154;13.570;2022-08-25T13:55:23;21.02;;;5.80;;
72939;SDS011;61094;51.154;13.570;2022-08-25T13:57:53;20.88;;;5.40;;
72939;SDS011;61094;51.154;13.570;2022-08-25T14:00:26;20.52;;;6.47;;
72939;SDS011;61094;51.154;13.570;2022-08-25T14:02:55;17.58;;;5.28;;
72939;SDS011;61094;51.154;13.570;2022-08-25T14:05:36;21.67;;;6.68;;
72939;SDS011;61094;51.154;13.570;2022-08-25T14:08:05;14.35;;;4.85;;
72939;SDS011;61094;51.154;13.570;2022-08-25T14:13:10;20.35;;;6.68;;
72939;SDS011;61094;51.154;13.570;2022-08-25T14:15:39;23.80;;;7.30;;
72939;SDS011;61094;51.154;13.570;2022-08-25T14:18:08;20.42;;;6.00;;
72939;SDS011;61094;51.154;13.570;2022-08-25T14:20:42;15.85;;;4.80;;
72939;SDS011;61094;51.154;13.570;2022-08-25T14:23:10;13.90;;;5.40;;
72939;SDS011;61094;51.154;13.570;2022-08-25T14:25:41;16.77;;;5.88;;
72939;SDS011;61094;51.154;13.570;2022-08-25T14:28:10;14.82;;;5.07;;
72939;SDS011;61094;51.154;13.570;2022-08-25T14:30:39;25.10;;;11.05;;
72939;SDS011;61094;51.154;13.570;2022-08-25T14:33:09;34.70;;;12.80;;
72939;SDS011;61094;51.154;13.570;2022-08-25T14:35:37;28.30;;;8.00;;
72939;SDS011;61094;51.154;13.570;2022-08-25T14:38:06;24.45;;;6.20;;
72939;SDS011;61094;51.154;13.570;2022-08-25T14:40:34;19.60;;;6.38;;
72939;SDS011;61094;51.154;13.570;2022-08-25T14:43:02;20.15;;;8.02;;
72939;SDS011;61094;51.154;13.570;2022-08-25T14:45:30;18.05;;;6.60;;
72939;SDS011;61094;51.154;13.570;2022-08-25T14:47:58;15.82;;;5.20;;
72939;SDS011;61094;51.154;13.570;2022-08-25T14:50:29;14.95;;;5.32;;
72939;SDS011;61094;51.154;13.570;2022-08-25T14:52:56;22.02;;;6.70;;
72939;SDS011;61094;51.154;13.570;2022-08-25T14:55:22;16.27;;;6.70;;
72939;SDS011;61094;51.154;13.570;2022-08-25T14:57:49;19.27;;;5.97;;
72939;SDS011;61094;51.154;13.570;2022-08-25T15:00:16;20.70;;;6.50;;
72939;SDS011;61094;51.154;13.570;2022-08-25T15:02:44;18.45;;;6.05;;
72939;SDS011;61094;51.154;13.570;2022-08-25T15:05:13;17.30;;;6.15;;
72939;SDS011;61094;51.154;13.570;2022-08-25T15:07:41;22.63;;;10.20;;
72939;SDS011;61094;51.154;13.570;2022-08-25T15:10:25;15.50;;;6.60;;
72939;SDS011;61094;51.154;13.570;2022-08-25T15:12:52;17.55;;;6.55;;
72939;SDS011;61094;51.154;13.570;2022-08-25T15:15:19;22.30;;;6.70;;
72939;SDS011;61094;51.154;13.570;2022-08-25T15:17:47;15.90;;;5.95;;